Time;durP1;ratioP1;P1;durP2;ratioP2;P2;SDS_P1;SDS_P2;PMS_P1;PMS_P2;Temp;Humidity;BMP_temperature;BMP_pressure;BME280_temperature;BME280_humidity;BME280_pressure;Samples;Min_cycle;Max_cycle;Signal;HPM_P1;HPM_P2
2024/01/25 00:01:40;;;;;;;100.07;3.67;;;;;;;13.46;63.78;96237.25;6134073;23;20020;-86
2024/01/25 00:04:06;;;;;;;89.63;3.70;;;;;;;13.20;64.55;96221.84;6133755;23;20027;-86
2024/01/25 00:14:11;;;;;;;148.65;3.75;;;;;;;12.85;65.26;96218.66;6153699;23;20029;-87
2024/01/25 00:16:41;;;;;;;53.55;1.75;;;;;;;12.85;65.61;96222.09;6080341;23;20010;-86
2024/01/25 00:19:06;;;;;;;167.05;4.72;;;;;;;12.85;65.15;96211.66;6128724;23;20006;-87
2024/01/25 00:26:32;;;;;;;83.05;2.25;;;;;;;12.99;64.71;96211.94;6198755;23;20072;-87
2024/01/25 00:28:57;;;;;;;59.00;2.00;;;;;;;12.85;65.28;96203.00;6133232;23;20013;-86
2024/01/25 00:31:23;;;;;;;93.03;2.97;;;;;;;12.93;65.18;96207.38;6157772;23;20013;-86
2024/01/25 00:33:48;;;;;;;141.52;4.68;;;;;;;13.00;64.66;96213.56;6133213;23;20013;-86
2024/01/25 00:36:14;;;;;;;52.40;1.95;;;;;;;12.93;65.08;96209.97;6132987;23;20009;-86
2024/01/25 00:41:14;;;;;;;92.28;2.72;;;;;;;13.06;64.64;96210.28;6178747;23;20036;-85
2024/01/25 00:43:40;;;;;;;125.40;4.40;;;;;;;13.03;64.56;96202.78;6157491;23;20028;-86
2024/01/25 00:46:06;;;;;;;101.35;3.22;;;;;;;12.95;65.23;96211.47;6157220;23;20024;-86
2024/01/25 00:48:32;;;;;;;94.13;4.60;;;;;;;12.79;65.59;96190.63;6108600;23;20005;-86
2024/01/25 00:51:00;;;;;;;79.68;6.78;;;;;;;12.55;66.53;96188.88;6132412;23;20005;-86
2024/01/25 00:53:26;;;;;;;34.42;7.28;;;;;;;12.60;66.24;96187.38;6157438;23;19998;-86
2024/01/25 00:58:27;;;;;;;8.07;2.60;;;;;;;12.44;67.12;96198.66;6205601;23;20020;-86
2024/01/25 01:00:53;;;;;;;2.90;1.70;;;;;;;12.64;66.26;96183.47;6162721;23;20008;-86
2024/01/25 01:03:19;;;;;;;1.30;1.00;;;;;;;12.70;66.20;96198.47;6187462;23;20001;-86
2024/01/25 01:05:46;;;;;;;1.50;1.20;;;;;;;12.71;66.01;96196.66;6187421;23;20009;-86
2024/01/25 01:08:12;;;;;;;2.25;1.70;;;;;;;12.87;65.39;96194.03;6162490;23;20004;-87
2024/01/25 01:13:03;;;;;;;3.92;3.30;;;;;;;12.79;65.83;96188.00;6209610;23;20043;-86
2024/01/25 01:15:28;;;;;;;4.78;3.17;;;;;;;12.76;65.80;96193.56;6133271;23;20013;-86
2024/01/25 01:17:54;;;;;;;1.80;1.60;;;;;;;12.82;65.60;96188.47;6157244;23;20008;-86
2024/01/25 01:20:22;;;;;;;1.30;0.90;;;;;;;12.98;64.90;96199.84;6133348;23;20043;-87
2024/01/25 01:22:47;;;;;;;1.13;0.80;;;;;;;12.99;64.70;96194.47;6157806;23;20013;-87
2024/01/25 01:27:38;;;;;;;1.67;0.85;;;;;;;13.00;64.62;96183.03;6181643;23;20159;-86
2024/01/25 01:30:04;;;;;;;2.00;1.10;;;;;;;12.96;64.88;96191.38;6157061;23;20040;-86
2024/01/25 01:32:30;;;;;;;0.98;0.60;;;;;;;13.04;64.43;96181.72;6132675;23;20009;-86
2024/01/25 01:34:55;;;;;;;0.70;0.60;;;;;;;12.88;64.85;96181.78;6108992;23;20029;-87
2024/01/25 01:37:21;;;;;;;1.13;0.82;;;;;;;12.82;65.37;96183.25;6157726;23;20016;-86
2024/01/25 01:39:46;;;;;;;1.08;0.70;;;;;;;12.97;64.71;96182.59;6149245;23;20036;-86
2024/01/25 01:42:12;;;;;;;1.45;1.00;;;;;;;13.20;64.12;96183.47;6079971;23;20024;-87
2024/01/25 01:44:39;;;;;;;1.05;0.90;;;;;;;13.02;64.54;96185.47;6103874;23;20005;-86
2024/01/25 01:47:08;;;;;;;1.25;0.95;;;;;;;12.73;65.70;96181.66;6128368;23;20016;-86
2024/01/25 01:54:38;;;;;;;0.98;0.77;;;;;;;13.10;64.36;96186.28;6191327;23;20024;-86
2024/01/25 01:57:07;;;;;;;2.03;1.10;;;;;;;13.11;64.13;96185.28;6164809;23;20013;-86
2024/01/25 01:59:33;;;;;;;2.78;0.90;;;;;;;13.07;64.49;96186.59;6189196;23;20001;-86
2024/01/25 02:01:59;;;;;;;1.30;1.08;;;;;;;13.22;63.88;96173.66;6162886;23;20020;-87
2024/01/25 02:04:24;;;;;;;1.42;1.30;;;;;;;13.03;64.16;96171.44;6169504;23;20000;-86
2024/01/25 02:06:50;;;;;;;2.63;1.60;;;;;;;13.11;64.26;96168.78;6194057;23;20018;-86
2024/01/25 02:09:15;;;;;;;1.33;1.20;;;;;;;12.97;64.58;96169.53;6193981;23;20012;-84
2024/01/25 02:11:41;;;;;;;2.92;1.50;;;;;;;12.76;65.35;96160.44;6194048;23;20008;-85
2024/01/25 02:14:10;;;;;;;1.98;1.60;;;;;;;12.94;64.85;96159.41;6194021;23;20083;-86
2024/01/25 02:16:36;;;;;;;2.67;1.77;;;;;;;13.02;64.68;96162.81;6219471;23;20035;-86
2024/01/25 02:19:05;;;;;;;2.05;1.70;;;;;;;12.83;65.23;96158.78;6194780;23;20015;-86
2024/01/25 02:21:30;;;;;;;2.22;1.50;;;;;;;12.94;65.21;96162.00;6194718;23;20008;-86
2024/01/25 02:26:31;;;;;;;3.00;1.60;;;;;;;12.96;65.25;96152.22;6245025;22;20024;-85
2024/01/25 02:28:57;;;;;;;2.20;1.58;;;;;;;13.08;64.68;96149.06;6194148;23;20077;-86
2024/01/25 02:31:22;;;;;;;1.95;1.73;;;;;;;13.15;64.22;96141.34;6194210;23;20011;-86
2024/01/25 02:33:47;;;;;;;264.92;9.20;;;;;;;13.00;64.97;96156.91;6219088;23;20012;-86
2024/01/25 02:41:13;;;;;;;35.30;4.57;;;;;;;12.72;65.63;96146.09;6244017;23;20032;-86
2024/01/25 02:43:43;;;;;;;8.13;4.65;;;;;;;12.54;66.40;96141.06;6218495;23;20008;-86
2024/01/25 02:48:35;;;;;;;6.45;3.90;;;;;;;12.43;67.02;96144.03;6128342;23;20079;-87
2024/01/25 02:51:01;;;;;;;6.32;4.50;;;;;;;12.66;65.93;96123.25;6104952;23;20044;-87
2024/01/25 02:53:26;;;;;;;6.63;4.40;;;;;;;12.69;66.19;96138.59;6105077;23;20013;-86
2024/01/25 02:58:27;;;;;;;6.82;4.20;;;;;;;12.73;65.59;96120.81;6212175;23;20029;-87
2024/01/25 03:00:53;;;;;;;6.43;4.25;;;;;;;12.75;65.34;96121.44;6138772;23;20012;-87
2024/01/25 03:03:18;;;;;;;84.05;7.03;;;;;;;12.79;65.32;96133.19;6138755;23;20083;-87
2024/01/25 03:05:44;;;;;;;11.05;5.07;;;;;;;12.84;65.22;96116.03;6163462;23;20012;-87
2024/01/25 03:08:09;;;;;;;8.20;4.13;;;;;;;12.72;65.46;96127.84;6163144;23;20012;-86
2024/01/25 03:13:10;;;;;;;8.05;4.38;;;;;;;12.75;65.72;96122.25;6193150;22;20074;-86
2024/01/25 03:15:40;;;;;;;48.00;6.65;;;;;;;12.68;66.02;96129.97;6133711;23;20013;-86
2024/01/25 03:18:05;;;;;;;53.47;6.13;;;;;;;12.52;66.56;96137.81;6109271;23;20040;-86
2024/01/25 03:20:31;;;;;;;36.80;6.32;;;;;;;12.70;66.12;96135.03;6158049;23;20000;-86
2024/01/25 03:27:57;;;;;;;32.47;6.45;;;;;;;12.49;66.46;96117.31;6180886;23;20029;-87
2024/01/25 03:30:22;;;;;;;6.30;4.38;;;;;;;12.25;67.51;96108.53;6158290;23;20012;-86
2024/01/25 03:32:48;;;;;;;5.40;3.80;;;;;;;12.49;66.69;96110.28;6157898;23;20055;-86
2024/01/25 03:35:13;;;;;;;3.75;3.28;;;;;;;12.57;66.41;96113.84;6157909;23;20005;-86
2024/01/25 03:40:05;;;;;;;3.03;2.70;;;;;;;12.74;65.72;96107.59;6165999;22;20059;-86
2024/01/25 03:42:30;;;;;;;3.45;2.75;;;;;;;12.99;65.06;96117.94;6158252;23;20004;-86
2024/01/25 03:44:58;;;;;;;2.97;2.60;;;;;;;12.91;65.29;96121.41;6133525;23;20009;-86
2024/01/25 03:47:24;;;;;;;2.70;2.50;;;;;;;12.96;64.96;96105.22;6133698;23;20013;-87
2024/01/25 03:49:49;;;;;;;2.70;2.50;;;;;;;12.96;65.02;96116.47;6133964;23;20096;-86
2024/01/25 03:54:40;;;;;;;4.45;2.97;;;;;;;13.01;64.72;96106.31;6149300;23;20021;-87
2024/01/25 03:57:07;;;;;;;2.72;2.33;;;;;;;13.00;64.77;96115.13;6158137;23;20116;-86
2024/01/25 03:59:32;;;;;;;3.75;2.70;;;;;;;13.08;64.17;96109.09;6109069;23;20005;-86
2024/01/25 04:01:58;;;;;;;2.97;2.20;;;;;;;13.02;64.76;96128.03;6133898;23;20013;-86
2024/01/25 04:04:26;;;;;;;3.83;2.30;;;;;;;13.21;64.07;96130.25;6133783;23;20072;-86
2024/01/25 04:09:26;;;;;;;2.20;2.00;;;;;;;13.08;64.22;96112.50;6189383;23;20016;-86
2024/01/25 04:11:52;;;;;;;3.47;2.50;;;;;;;13.05;64.41;96127.69;6186876;23;20015;-86
2024/01/25 04:14:21;;;;;;;2.15;1.80;;;;;;;13.27;63.65;96124.31;6137442;23;20024;-85
2024/01/25 04:16:47;;;;;;;2.70;1.90;;;;;;;13.37;63.15;96133.78;6187984;23;20019;-85
2024/01/25 04:21:47;;;;;;;2.10;1.90;;;;;;;13.20;64.12;96125.97;6212616;23;20020;-85
2024/01/25 04:24:13;;;;;;;1.95;1.70;;;;;;;13.13;64.45;96126.84;6162241;23;20082;-85
2024/01/25 04:26:42;;;;;;;2.20;1.80;;;;;;;13.22;64.10;96120.59;6139553;23;20016;-85
2024/01/25 04:29:10;;;;;;;2.22;1.77;;;;;;;13.34;64.11;96132.31;6162491;23;20106;-85
2024/01/25 04:31:43;;;;;;;3.15;2.00;;;;;;;13.33;63.88;96135.06;6186743;23;20008;-85
2024/01/25 04:36:44;;;;;;;1.70;1.60;;;;;;;13.41;63.78;96132.44;6242257;23;20024;-86
2024/01/25 04:39:09;;;;;;;1.95;1.40;;;;;;;13.29;64.34;96134.59;6191830;23;20018;-86
2024/01/25 04:41:36;;;;;;;2.13;1.50;;;;;;;13.35;64.11;96138.38;6216753;23;20038;-86
2024/01/25 04:44:01;;;;;;;2.17;1.40;;;;;;;13.37;64.15;96141.63;6217133;23;19992;-85
2024/01/25 04:49:03;;;;;;;1.33;1.23;;;;;;;13.47;63.73;96139.59;6212838;23;20028;-85
2024/01/25 04:51:28;;;;;;;2.40;1.70;;;;;;;13.36;63.79;96130.31;6162580;23;20008;-87
2024/01/25 04:53:53;;;;;;;1.58;1.38;;;;;;;13.44;63.89;96143.38;6161928;23;20005;-86
2024/01/25 04:56:21;;;;;;;1.77;1.55;;;;;;;13.32;64.17;96147.34;6162738;23;20019;-87
2024/01/25 04:58:47;;;;;;;1.90;1.60;;;;;;;13.51;63.55;96145.28;6187028;23;20003;-86
2024/01/25 05:06:23;;;;;;;1.85;1.75;;;;;;;13.22;64.23;96134.47;6197271;23;20017;-86
2024/01/25 05:08:48;;;;;;;2.50;2.13;;;;;;;13.25;64.19;96149.81;6156698;23;20011;-86
2024/01/25 05:11:16;;;;;;;2.10;1.88;;;;;;;13.53;63.66;96154.56;6157195;23;20009;-85
2024/01/25 05:13:42;;;;;;;3.45;2.70;;;;;;;13.51;63.45;96132.22;6156566;23;20037;-86
2024/01/25 05:21:11;;;;;;;3.00;2.10;;;;;;;13.32;64.09;96149.16;6182879;23;20259;-85
2024/01/25 05:23:36;;;;;;;3.75;2.40;;;;;;;13.08;65.26;96156.09;6157111;23;20076;-85
2024/01/25 05:26:02;;;;;;;2.67;2.45;;;;;;;13.11;64.74;96153.13;6107925;23;20044;-85
2024/01/25 05:30:53;;;;;;;2.15;1.85;;;;;;;13.39;64.09;96155.31;6176874;23;20044;-87
2024/01/25 05:33:18;;;;;;;2.08;1.83;;;;;;;13.28;64.35;96154.66;6157844;23;20009;-85
2024/01/25 05:35:44;;;;;;;1.90;1.77;;;;;;;13.26;64.29;96156.66;6133516;23;20009;-85
2024/01/25 05:38:09;;;;;;;2.30;2.10;;;;;;;13.17;64.79;96160.28;6133229;23;20040;-85
2024/01/25 05:43:01;;;;;;;2.47;2.22;;;;;;;13.25;64.40;96155.03;6150681;23;20076;-85
2024/01/25 05:45:27;;;;;;;2.35;2.05;;;;;;;12.98;65.41;96158.06;6128943;23;20092;-85
2024/01/25 05:47:52;;;;;;;2.88;2.03;;;;;;;13.18;64.83;96151.47;6104729;23;20051;-85
2024/01/25 05:50:18;;;;;;;1.85;1.70;;;;;;;13.13;64.64;96156.38;6128285;23;20013;-85
2024/01/25 05:52:44;;;;;;;1.85;1.60;;;;;;;13.27;64.37;96168.75;6128674;23;20045;-85
2024/01/25 05:57:36;;;;;;;1.45;1.35;;;;;;;13.37;63.99;96152.06;6180329;23;20080;-85
2024/01/25 06:00:05;;;;;;;1.90;1.70;;;;;;;13.39;63.98;96155.31;6133007;23;20060;-86
2024/01/25 06:02:31;;;;;;;1.63;1.40;;;;;;;13.32;64.13;96159.59;6133252;23;20017;-85
2024/01/25 06:04:58;;;;;;;1.70;1.30;;;;;;;13.28;64.12;96170.34;6133035;23;20071;-85
2024/01/25 06:09:49;;;;;;;2.60;1.30;;;;;;;13.34;64.12;96170.69;6181394;23;20025;-85
2024/01/25 06:12:15;;;;;;;1.15;0.93;;;;;;;13.49;63.52;96169.78;6131817;23;20013;-86
2024/01/25 06:14:40;;;;;;;1.00;0.90;;;;;;;13.71;62.84;96175.22;6132432;23;20009;-86
2024/01/25 06:17:06;;;;;;;1.35;1.15;;;;;;;13.38;63.83;96170.16;6156730;23;20005;-86
2024/01/25 06:19:33;;;;;;;2.75;0.95;;;;;;;13.61;62.91;96166.78;6124619;23;20088;-86
2024/01/25 06:22:02;;;;;;;1.55;1.00;;;;;;;13.63;63.13;96183.94;6137919;23;20017;-86
2024/01/25 06:24:28;;;;;;;1.23;1.00;;;;;;;13.67;62.73;96173.94;6187086;23;20015;-86
2024/01/25 06:26:54;;;;;;;1.67;0.95;;;;;;;13.64;62.75;96174.28;6161839;23;20016;-86
2024/01/25 06:29:22;;;;;;;1.30;1.10;;;;;;;13.68;62.79;96186.81;6161561;23;20009;-85
2024/01/25 06:31:48;;;;;;;0.88;0.80;;;;;;;13.53;63.17;96183.31;6186386;23;20005;-85
2024/01/25 06:34:13;;;;;;;0.80;0.80;;;;;;;13.69;62.89;96192.88;6161927;23;20008;-86
2024/01/25 06:36:39;;;;;;;1.88;0.88;;;;;;;13.45;63.80;96196.44;6162285;23;20013;-86
2024/01/25 06:39:04;;;;;;;0.80;0.80;;;;;;;13.42;64.25;96199.38;6163827;23;20065;-86
2024/01/25 06:43:56;;;;;;;1.05;0.95;;;;;;;13.53;63.96;96211.25;6193947;23;20049;-88
2024/01/25 06:46:21;;;;;;;1.85;0.80;;;;;;;13.50;63.75;96204.59;6134373;23;20040;-86
2024/01/25 06:48:50;;;;;;;0.70;0.70;;;;;;;13.57;63.63;96212.53;6109699;23;20066;-86
2024/01/25 06:51:16;;;;;;;2.00;0.80;;;;;;;13.56;63.65;96219.56;6134617;23;20024;-87
2024/01/25 07:04:05;;;;;;;1.35;0.90;;;;;;;13.72;63.48;96213.44;6183444;23;20024;-86
2024/01/25 07:06:30;;;;;;;0.93;0.88;;;;;;;13.59;63.76;96208.75;6157784;23;20071;-86
2024/01/25 07:08:56;;;;;;;1.10;0.70;;;;;;;13.54;63.93;96213.72;6109593;23;20091;-86
2024/01/25 07:11:21;;;;;;;0.80;0.80;;;;;;;13.55;64.08;96206.69;6158214;23;20072;-85
2024/01/25 07:13:49;;;;;;;0.90;0.73;;;;;;;13.61;64.06;96212.03;6110707;23;20009;-88
2024/01/25 07:16:15;;;;;;;0.70;0.70;;;;;;;13.63;63.85;96201.41;6134100;23;20022;-86
2024/01/25 07:26:30;;;;;;;1.10;1.00;;;;;;;13.72;63.21;96186.50;6205689;23;20012;-87
2024/01/25 07:28:58;;;;;;;1.45;0.90;;;;;;;13.76;63.23;96201.63;6139476;23;20008;-86
2024/01/25 07:31:25;;;;;;;1.15;0.80;;;;;;;13.74;63.29;96200.19;6163692;23;20043;-86
2024/01/25 07:36:19;;;;;;;2.75;1.13;;;;;;;13.73;63.40;96214.25;6155629;23;20076;-88
2024/01/25 07:38:48;;;;;;;1.25;1.15;;;;;;;13.77;63.45;96216.34;6099775;23;20029;-87
2024/01/25 07:41:17;;;;;;;1.70;1.30;;;;;;;13.64;63.85;96206.47;6099758;23;20101;-86
2024/01/25 07:43:42;;;;;;;2.35;1.48;;;;;;;13.55;64.20;96204.88;6075812;23;20014;-86
2024/01/25 07:46:08;;;;;;;2.13;1.40;;;;;;;13.67;63.96;96215.78;6184739;23;20012;-86
2024/01/25 07:48:34;;;;;;;1.70;1.60;;;;;;;13.61;63.79;96213.81;6187008;23;20071;-86
2024/01/25 07:58:45;;;;;;;2.85;2.55;;;;;;;13.30;65.37;96236.34;6208925;23;20055;-86
2024/01/25 08:01:17;;;;;;;3.00;2.72;;;;;;;13.37;64.85;96223.44;6128988;23;20024;-86
2024/01/25 08:03:42;;;;;;;3.25;2.60;;;;;;;13.45;64.70;96233.84;6163839;23;20044;-87
2024/01/25 08:08:35;;;;;;;2.92;1.85;;;;;;;13.43;64.20;96222.75;6149593;23;20028;-86
2024/01/25 08:11:01;;;;;;;2.40;1.65;;;;;;;13.48;63.72;96217.81;6128169;23;20044;-86
2024/01/25 08:13:28;;;;;;;3.25;2.97;;;;;;;13.29;64.33;96213.78;6128228;23;20076;-86
2024/01/25 08:20:54;;;;;;;16.83;3.97;;;;;;;13.30;64.76;96236.34;6182667;23;20259;-86
2024/01/25 08:23:19;;;;;;;4.90;3.63;;;;;;;13.33;64.83;96231.75;6108859;23;20005;-86
2024/01/25 08:25:45;;;;;;;6.82;4.45;;;;;;;13.34;64.69;96226.38;6133106;23;20009;-86
2024/01/25 08:28:13;;;;;;;11.82;7.13;;;;;;;13.30;64.63;96231.13;6133884;23;20120;-86
2024/01/25 08:33:16;;;;;;;7.75;5.78;;;;;;;13.17;65.04;96230.81;6180065;23;20025;-86
2024/01/25 08:35:45;;;;;;;5.57;3.88;;;;;;;13.49;64.18;96239.53;6156978;23;20005;-86
2024/01/25 08:40:37;;;;;;;6.85;4.55;;;;;;;13.36;64.47;96234.03;6174102;23;20016;-87
2024/01/25 08:45:38;;;;;;;556.78;21.00;;;;;;;13.20;65.41;96238.31;6194821;23;20028;-86
2024/01/25 08:48:04;;;;;;;509.63;17.58;;;;;;;13.29;65.15;96237.31;6133060;23;20013;-86
2024/01/25 08:50:34;;;;;;;47.80;6.55;;;;;;;13.04;66.01;96246.19;6157449;23;20009;-86
2024/01/25 08:52:59;;;;;;;142.50;11.50;;;;;;;13.15;65.73;96255.47;6108669;23;20040;-86
2024/01/25 08:55:25;;;;;;;58.13;9.88;;;;;;;13.03;66.27;96247.19;6157285;23;20008;-86
2024/01/25 09:00:25;;;;;;;19.80;9.45;;;;;;;12.99;66.10;96240.66;6175219;23;20021;-86
2024/01/25 09:02:51;;;;;;;24.10;9.75;;;;;;;13.09;65.91;96249.94;6157689;23;20015;-86
2024/01/25 09:05:16;;;;;;;166.63;14.27;;;;;;;13.14;65.91;96256.47;6157866;23;20009;-88
2024/01/25 09:07:42;;;;;;;107.97;10.90;;;;;;;13.33;65.14;96250.88;6157331;23;20004;-87
2024/01/25 09:10:08;;;;;;;267.70;13.38;;;;;;;13.43;64.80;96250.69;6132758;23;20012;-86
2024/01/25 09:12:40;;;;;;;122.60;9.95;;;;;;;13.11;65.45;96253.19;6157384;23;20063;-86
2024/01/25 09:15:08;;;;;;;556.75;21.90;;;;;;;12.99;66.14;96254.53;6133828;23;20013;-87
2024/01/25 09:20:12;;;;;;;163.02;11.40;;;;;;;13.07;65.59;96257.13;6142252;23;20032;-85
2024/01/25 09:22:38;;;;;;;174.75;12.68;;;;;;;13.05;65.95;96268.72;6127629;23;20029;-86
2024/01/25 09:25:04;;;;;;;139.98;10.02;;;;;;;13.26;65.19;96263.75;6102998;23;20009;-85
2024/01/25 09:29:57;;;;;;;340.20;14.13;;;;;;;12.98;65.88;96262.53;6195901;23;20074;-86
2024/01/25 09:32:23;;;;;;;234.63;10.48;;;;;;;13.03;65.78;96266.28;6133182;23;20020;-86
2024/01/25 09:34:50;;;;;;;413.40;17.98;;;;;;;13.06;66.05;96275.56;6157172;23;20071;-87
2024/01/25 09:39:51;;;;;;;806.30;26.80;;;;;;;13.06;65.77;96263.34;6180124;23;20029;-87
2024/01/25 09:42:18;;;;;;;531.72;20.75;;;;;;;13.02;66.33;96284.72;6156854;23;20055;-87
2024/01/25 09:44:44;;;;;;;621.92;24.88;;;;;;;13.18;65.29;96274.25;6157486;23;20008;-87
2024/01/25 09:47:10;;;;;;;655.65;22.45;;;;;;;13.03;65.83;96281.13;6157447;23;20016;-86
2024/01/25 09:49:35;;;;;;;456.80;17.45;;;;;;;12.85;66.57;96297.81;6157844;23;20004;-86
2024/01/25 09:52:05;;;;;;;504.60;17.98;;;;;;;13.01;66.16;96296.16;6108548;23;20013;-86
2024/01/25 09:54:37;;;;;;;558.42;19.58;;;;;;;12.94;66.47;96290.78;6157382;23;20001;-86
2024/01/25 10:02:29;;;;;;;168.45;11.15;;;;;;;13.05;65.82;96300.88;6262095;22;20023;-86
2024/01/25 10:04:59;;;;;;;103.75;10.15;;;;;;;12.87;66.60;96297.63;6247468;22;19996;-87
2024/01/25 10:07:45;;;;;;;62.40;8.52;;;;;;;12.86;66.85;96299.44;6221751;22;20065;-85
2024/01/25 10:10:11;;;;;;;84.53;10.10;;;;;;;13.08;66.08;96303.16;6246997;22;20013;-86
2024/01/25 10:20:16;;;;;;;52.58;28.65;;;;;;;13.02;66.57;96292.56;6244629;23;20031;-86
2024/01/25 10:22:43;;;;;;;32.30;16.90;;;;;;;13.13;66.51;96288.78;6193947;23;20012;-86
2024/01/25 10:25:13;;;;;;;18.83;12.77;;;;;;;13.13;66.26;96286.19;6218741;23;20004;-86
2024/01/25 10:27:39;;;;;;;10.32;9.23;;;;;;;13.33;65.39;96297.06;6218458;23;20012;-86
2024/01/25 10:32:41;;;;;;;6.18;5.20;;;;;;;13.53;65.40;96290.47;6212745;23;20020;-85
2024/01/25 10:35:08;;;;;;;8.32;6.00;;;;;;;13.42;65.63;96281.22;6139052;23;20034;-86
2024/01/25 10:37:34;;;;;;;22.42;5.93;;;;;;;13.44;65.98;96296.72;6163184;23;20070;-86
2024/01/25 10:40:00;;;;;;;5.85;4.85;;;;;;;13.82;64.55;96287.25;6139522;23;20008;-84
2024/01/25 10:44:52;;;;;;;9.60;6.22;;;;;;;13.80;65.07;96283.16;6212611;23;20048;-85
2024/01/25 10:47:17;;;;;;;5.97;4.40;;;;;;;13.92;64.53;96276.59;6139134;23;20016;-85
2024/01/25 10:54:44;;;;;;;7.95;6.90;;;;;;;13.87;65.08;96268.44;6197016;22;20029;-85
2024/01/25 10:57:10;;;;;;;13.00;8.50;;;;;;;14.02;64.71;96263.28;6158160;23;20005;-85
2024/01/25 10:59:36;;;;;;;3.20;2.83;;;;;;;14.00;64.50;96255.59;6124328;23;20009;-85
2024/01/25 11:02:04;;;;;;;4.68;4.28;;;;;;;14.17;64.48;96258.13;6158000;23;20021;-86
2024/01/25 11:04:29;;;;;;;3.15;2.80;;;;;;;14.22;64.10;96248.75;6133840;23;20013;-85
2024/01/25 11:07:06;;;;;;;2.47;2.28;;;;;;;14.20;64.44;96234.22;6108186;23;20009;-86
2024/01/25 11:19:46;;;;;;;16.35;5.30;;;;;;;14.19;64.79;96227.38;6163001;23;20022;-85
2024/01/25 11:22:12;;;;;;;275.75;11.55;;;;;;;14.25;64.12;96229.28;6104442;23;20020;-86
2024/01/25 11:24:38;;;;;;;33.72;7.95;;;;;;;13.99;65.34;96237.47;6103919;23;20081;-85
2024/01/25 11:34:40;;;;;;;5.80;4.60;;;;;;;14.19;64.42;96222.13;6201844;23;20028;-85
2024/01/25 11:37:08;;;;;;;4.50;4.07;;;;;;;14.29;64.09;96227.94;6163457;23;20023;-86
2024/01/25 11:39:36;;;;;;;4.03;3.63;;;;;;;14.26;63.90;96226.47;6163544;23;20012;-86
2024/01/25 11:44:27;;;;;;;3.90;3.50;;;;;;;14.17;64.02;96206.59;6213211;22;20039;-85
2024/01/25 11:46:59;;;;;;;3.70;3.40;;;;;;;14.25;64.14;96222.22;6162940;23;20015;-85
2024/01/25 11:49:25;;;;;;;4.57;3.78;;;;;;;14.61;63.33;96212.97;6163679;23;20082;-86
2024/01/25 11:51:50;;;;;;;4.15;3.38;;;;;;;14.27;64.07;96203.75;6187399;23;20012;-86
2024/01/25 11:59:19;;;;;;;4.68;4.22;;;;;;;14.60;63.72;96208.72;6213302;23;20023;-86
2024/01/25 12:01:48;;;;;;;4.93;4.10;;;;;;;14.61;63.63;96213.78;6138897;23;20044;-86
2024/01/25 12:04:14;;;;;;;5.40;4.35;;;;;;;14.64;63.14;96202.13;6163194;23;20016;-86
2024/01/25 12:11:41;;;;;;;6.72;5.22;;;;;;;14.30;64.93;96207.78;6153053;23;20025;-86
2024/01/25 12:14:09;;;;;;;5.82;5.00;;;;;;;14.27;65.25;96193.28;6128341;23;20032;-86
2024/01/25 12:33:34;;;;;;;3.03;2.78;;;;;;;14.71;63.58;96174.22;6242549;22;20024;-86
2024/01/25 12:36:03;;;;;;;3.50;3.20;;;;;;;14.67;63.74;96178.22;6217237;23;20016;-86
2024/01/25 12:38:31;;;;;;;3.30;3.00;;;;;;;14.64;63.81;96175.94;6192905;23;20012;-86
2024/01/25 12:40:57;;;;;;;3.38;3.08;;;;;;;15.04;62.58;96172.09;6217044;23;20007;-86
2024/01/25 12:43:22;;;;;;;2.65;2.45;;;;;;;15.02;61.41;96163.59;6216691;23;20070;-86
2024/01/25 12:50:59;;;;;;;3.25;2.83;;;;;;;15.11;61.71;96169.53;6210150;23;20023;-85
2024/01/25 12:53:24;;;;;;;15.27;9.18;;;;;;;15.14;61.54;96171.81;6132907;23;20076;-85
2024/01/25 12:55:50;;;;;;;3.58;3.28;;;;;;;15.23;62.23;96164.63;6108054;23;20013;-87
2024/01/25 12:58:15;;;;;;;2.97;2.60;;;;;;;15.40;62.42;96171.31;6157479;23;20071;-86
2024/01/25 13:00:40;;;;;;;3.60;3.30;;;;;;;15.58;62.10;96162.22;6157654;23;20080;-86
2024/01/25 13:03:06;;;;;;;2.67;2.47;;;;;;;15.55;61.66;96158.16;6132332;23;20020;-86
2024/01/25 13:05:33;;;;;;;4.40;2.70;;;;;;;15.83;60.98;96157.47;6156881;23;20076;-86
2024/01/25 13:08:03;;;;;;;2.90;2.60;;;;;;;15.72;60.89;96148.22;6128960;22;20036;-87
2024/01/25 13:13:07;;;;;;;2.60;2.40;;;;;;;15.54;60.86;96143.44;6199784;23;20024;-85
2024/01/25 13:15:33;;;;;;;3.78;2.25;;;;;;;15.60;60.52;96150.53;6187086;23;20020;-85
2024/01/25 13:20:23;;;;;;;2.30;2.10;;;;;;;15.56;59.24;96123.06;6203201;23;20024;-85
2024/01/25 13:22:51;;;;;;;2.35;2.15;;;;;;;15.54;59.54;96130.31;6137795;23;20044;-86
2024/01/25 13:25:17;;;;;;;2.50;2.30;;;;;;;15.57;60.35;96135.19;6161975;23;20014;-85
2024/01/25 13:27:44;;;;;;;3.35;2.50;;;;;;;15.56;60.31;96122.28;6137721;23;20012;-86
2024/01/25 13:37:36;;;;;;;5.15;4.65;;;;;;;15.37;62.99;96107.94;6181100;23;20021;-86
2024/01/25 13:40:03;;;;;;;5.28;4.78;;;;;;;15.60;62.51;96116.44;6133000;23;20009;-87
2024/01/25 13:42:29;;;;;;;4.78;4.38;;;;;;;15.47;63.02;96108.44;6157718;23;20019;-86
2024/01/25 13:44:54;;;;;;;3.90;3.60;;;;;;;15.75;61.83;96107.75;6156919;23;20092;-86
2024/01/25 13:49:45;;;;;;;4.65;4.25;;;;;;;16.05;60.59;96104.97;6181275;23;20033;-86
2024/01/25 13:57:23;;;;;;;5.68;4.05;;;;;;;15.82;61.81;96098.94;6190570;23;20016;-86
2024/01/25 13:59:49;;;;;;;5.20;4.70;;;;;;;15.88;61.92;96105.25;6140298;23;20024;-85
2024/01/25 14:02:14;;;;;;;5.18;4.68;;;;;;;15.85;61.69;96096.94;6164116;23;20027;-85
2024/01/25 14:04:40;;;;;;;5.57;5.07;;;;;;;15.88;61.67;96092.13;6163953;23;20093;-85
2024/01/25 14:07:05;;;;;;;4.80;4.38;;;;;;;15.60;62.74;96086.81;6188418;23;20011;-85
2024/01/25 14:19:41;;;;;;;5.80;4.75;;;;;;;15.52;62.75;96065.97;6243734;22;20150;-86
2024/01/25 14:22:07;;;;;;;6.35;4.63;;;;;;;15.64;61.66;96072.31;6192948;23;20015;-86
2024/01/25 14:24:34;;;;;;;4.63;4.07;;;;;;;15.49;61.62;96075.00;6218366;23;20007;-86
2024/01/25 14:27:00;;;;;;;4.40;4.00;;;;;;;15.28;62.71;96077.63;6193561;23;20014;-84
2024/01/25 14:29:25;;;;;;;4.95;4.50;;;;;;;15.50;61.90;96074.00;6218055;23;20087;-85
2024/01/25 14:34:16;;;;;;;4.60;4.20;;;;;;;15.86;61.68;96064.44;6209813;22;20095;-86
2024/01/25 14:36:42;;;;;;;4.63;4.22;;;;;;;16.04;60.94;96070.06;6161477;23;20051;-86
2024/01/25 14:44:12;;;;;;;3.35;3.05;;;;;;;16.06;59.70;96059.38;6153965;23;20045;-86
2024/01/25 14:46:37;;;;;;;3.38;3.08;;;;;;;16.29;59.18;96057.28;6104713;23;20013;-87
2024/01/25 14:49:05;;;;;;;4.80;4.40;;;;;;;16.29;59.59;96056.50;6080625;23;20032;-85
2024/01/25 14:56:34;;;;;;;6.45;4.25;;;;;;;15.76;61.25;96068.22;6201330;23;20019;-86
2024/01/25 14:58:59;;;;;;;6.07;4.00;;;;;;;15.66;61.16;96061.66;6110449;23;20047;-86
2024/01/25 15:01:28;;;;;;;5.55;4.15;;;;;;;15.38;62.10;96065.00;6157720;23;20017;-85
2024/01/25 15:03:55;;;;;;;5.30;4.80;;;;;;;15.79;60.63;96072.28;6157806;23;20001;-86
2024/01/25 15:08:56;;;;;;;5.75;5.10;;;;;;;15.34;61.96;96087.34;6183070;23;20024;-85
2024/01/25 15:11:23;;;;;;;6.57;5.18;;;;;;;15.36;61.24;96059.13;6108803;23;20005;-86
2024/01/25 15:13:48;;;;;;;7.38;4.88;;;;;;;15.14;61.78;96060.94;6108597;23;20016;-87
2024/01/25 15:16:17;;;;;;;6.00;5.40;;;;;;;15.25;61.25;96053.41;6161976;23;20017;-85
2024/01/25 15:18:42;;;;;;;5.32;4.82;;;;;;;15.12;61.36;96063.75;6158036;23;20044;-86
2024/01/25 15:21:08;;;;;;;5.57;5.07;;;;;;;14.76;62.26;96048.81;6182796;23;20020;-85
2024/01/25 15:31:01;;;;;;;5.90;5.30;;;;;;;14.46;63.34;96061.91;6182242;23;20029;-86
2024/01/25 15:33:27;;;;;;;7.20;5.57;;;;;;;14.54;62.96;96058.38;6134472;23;20005;-87
2024/01/25 15:35:52;;;;;;;5.78;5.18;;;;;;;14.28;63.18;96049.19;6157842;23;20071;-86
2024/01/25 15:38:19;;;;;;;5.45;4.88;;;;;;;14.24;63.41;96053.16;6133576;23;20009;-86
2024/01/25 15:40:47;;;;;;;5.38;4.80;;;;;;;14.55;61.86;96057.38;6133838;23;20008;-85
2024/01/25 15:43:13;;;;;;;5.30;4.80;;;;;;;14.50;62.61;96058.94;6157975;23;20040;-86
2024/01/25 15:45:38;;;;;;;5.65;4.78;;;;;;;14.73;61.94;96064.09;6158057;23;20001;-86
2024/01/25 15:48:04;;;;;;;6.75;6.05;;;;;;;14.60;62.29;96067.34;6109283;23;20069;-86
2024/01/25 15:53:05;;;;;;;6.60;5.43;;;;;;;14.37;63.15;96057.72;6180131;22;20033;-85
2024/01/25 15:55:30;;;;;;;5.97;5.38;;;;;;;14.35;62.74;96051.88;6109225;23;20013;-85